sensor_id;sensor_type;location;lat;lon;timestamp;pressure;altitude;pressure_sealevel;temperature;humidity
47716;BME280;33476;50.984;3.538;2023-02-21T00:00:14;102277.28;;;11.16;71.38
47716;BME280;33476;50.984;3.538;2023-02-21T00:02:58;102286.94;;;11.14;71.57
47716;BME280;33476;50.984;3.538;2023-02-21T00:05:42;102292.13;;;11.15;71.51
47716;BME280;33476;50.984;3.538;2023-02-21T00:08:26;102287.78;;;11.14;71.49
47716;BME280;33476;50.984;3.538;2023-02-21T00:11:10;102289.44;;;11.17;71.62
47716;BME280;33476;50.984;3.538;2023-02-21T00:13:54;102280.78;;;11.15;71.51
47716;BME280;33476;50.984;3.538;2023-02-21T00:16:37;102281.84;;;11.08;71.72
47716;BME280;33476;50.984;3.538;2023-02-21T00:19:21;102286.31;;;11.04;71.92
47716;BME280;33476;50.984;3.538;2023-02-21T00:22:05;102286.28;;;11.06;71.94
47716;BME280;33476;50.984;3.538;2023-02-21T00:24:49;102291.50;;;11.06;71.96
47716;BME280;33476;50.984;3.538;2023-02-21T00:27:33;102293.97;;;11.12;71.93
47716;BME280;33476;50.984;3.538;2023-02-21T00:30:17;102292.31;;;11.09;71.73
47716;BME280;33476;50.984;3.538;2023-02-21T00:33:01;102292.34;;;11.06;71.75
47716;BME280;33476;50.984;3.538;2023-02-21T00:35:45;102282.09;;;10.98;72.02
47716;BME280;33476;50.984;3.538;2023-02-21T00:38:28;102290.94;;;10.94;72.25
47716;BME280;33476;50.984;3.538;2023-02-21T00:41:12;102287.38;;;10.97;72.24
47716;BME280;33476;50.984;3.538;2023-02-21T00:43:56;102282.06;;;11.00;72.36
47716;BME280;33476;50.984;3.538;2023-02-21T00:46:40;102283.81;;;11.01;72.23
47716;BME280;33476;50.984;3.538;2023-02-21T00:49:23;102278.53;;;11.03;72.15
47716;BME280;33476;50.984;3.538;2023-02-21T00:52:07;102277.72;;;11.01;71.99
47716;BME280;33476;50.984;3.538;2023-02-21T00:54:51;102280.28;;;11.02;72.21
47716;BME280;33476;50.984;3.538;2023-02-21T00:57:35;102279.38;;;11.03;72.02
47716;BME280;33476;50.984;3.538;2023-02-21T01:00:21;102283.88;;;10.98;72.32
47716;BME280;33476;50.984;3.538;2023-02-21T01:03:06;102277.06;;;10.91;72.62
47716;BME280;33476;50.984;3.538;2023-02-21T01:05:51;102269.28;;;10.89;72.79
47716;BME280;33476;50.984;3.538;2023-02-21T01:08:35;102264.91;;;10.90;72.75
47716;BME280;33476;50.984;3.538;2023-02-21T01:11:21;102264.00;;;10.91;72.58
47716;BME280;33476;50.984;3.538;2023-02-21T01:14:06;102264.84;;;10.93;72.50
47716;BME280;33476;50.984;3.538;2023-02-21T01:16:50;102263.03;;;10.95;72.37
47716;BME280;33476;50.984;3.538;2023-02-21T01:19:34;102260.28;;;11.00;72.14
47716;BME280;33476;50.984;3.538;2023-02-21T01:22:18;102262.91;;;11.00;72.17
47716;BME280;33476;50.984;3.538;2023-02-21T01:25:03;102255.16;;;10.96;72.24
47716;BME280;33476;50.984;3.538;2023-02-21T01:27:47;102249.38;;;10.84;72.77
47716;BME280;33476;50.984;3.538;2023-02-21T01:30:31;102245.22;;;10.77;72.97
47716;BME280;33476;50.984;3.538;2023-02-21T01:33:14;102246.84;;;10.81;72.84
47716;BME280;33476;50.984;3.538;2023-02-21T01:35:58;102239.00;;;10.81;72.70
47716;BME280;33476;50.984;3.538;2023-02-21T01:38:42;102238.97;;;10.82;72.77
47716;BME280;33476;50.984;3.538;2023-02-21T01:41:26;102237.38;;;10.77;72.87
47716;BME280;33476;50.984;3.538;2023-02-21T01:47:16;102239.09;;;10.78;72.93
47716;BME280;33476;50.984;3.538;2023-02-21T01:50:05;102247.00;;;10.76;73.06
47716;BME280;33476;50.984;3.538;2023-02-21T01:52:50;102244.31;;;10.78;72.99
47716;BME280;33476;50.984;3.538;2023-02-21T01:55:37;102242.72;;;10.72;73.24
47716;BME280;33476;50.984;3.538;2023-02-21T01:58:24;102240.00;;;10.77;73.11
47716;BME280;33476;50.984;3.538;2023-02-21T02:01:13;102237.38;;;10.77;73.24
47716;BME280;33476;50.984;3.538;2023-02-21T02:04:00;102241.56;;;10.82;72.99
47716;BME280;33476;50.984;3.538;2023-02-21T02:06:44;102250.22;;;10.86;72.98
47716;BME280;33476;50.984;3.538;2023-02-21T02:09:28;102248.47;;;10.86;72.79
47716;BME280;33476;50.984;3.538;2023-02-21T02:15:14;102242.56;;;10.78;73.34
47716;BME280;33476;50.984;3.538;2023-02-21T02:26:15;102225.94;;;10.81;73.21
47716;BME280;33476;50.984;3.538;2023-02-21T02:40:26;102228.47;;;10.84;73.29
47716;BME280;33476;50.984;3.538;2023-02-21T02:45:43;102217.09;;;10.86;73.43
47716;BME280;33476;50.984;3.538;2023-02-21T02:48:26;102218.91;;;10.84;73.52
47716;BME280;33476;50.984;3.538;2023-02-21T02:50:52;102215.28;;;10.88;73.44
47716;BME280;33476;50.984;3.538;2023-02-21T02:53:22;102215.28;;;10.88;73.30
47716;BME280;33476;50.984;3.538;2023-02-21T02:56:00;102210.09;;;10.87;73.33
47716;BME280;33476;50.984;3.538;2023-02-21T02:58:41;102208.44;;;10.84;73.51
47716;BME280;33476;50.984;3.538;2023-02-21T03:01:26;102204.88;;;10.87;73.32
47716;BME280;33476;50.984;3.538;2023-02-21T03:07:15;102203.16;;;10.86;73.38
47716;BME280;33476;50.984;3.538;2023-02-21T03:15:24;102190.09;;;10.86;73.17
47716;BME280;33476;50.984;3.538;2023-02-21T03:17:56;102188.34;;;10.86;73.18
47716;BME280;33476;50.984;3.538;2023-02-21T03:20:25;102191.72;;;10.90;72.90
47716;BME280;33476;50.984;3.538;2023-02-21T03:22:52;102183.03;;;10.89;73.13
47716;BME280;33476;50.984;3.538;2023-02-21T03:25:20;102190.06;;;10.87;73.24
47716;BME280;33476;50.984;3.538;2023-02-21T03:27:47;102177.88;;;10.86;73.41
47716;BME280;33476;50.984;3.538;2023-02-21T03:30:13;102189.25;;;10.85;73.44
47716;BME280;33476;50.984;3.538;2023-02-21T03:32:44;102186.63;;;10.85;73.49
47716;BME280;33476;50.984;3.538;2023-02-21T03:35:10;102183.13;;;10.86;73.30
47716;BME280;33476;50.984;3.538;2023-02-21T03:40:16;102185.84;;;10.82;73.30
47716;BME280;33476;50.984;3.538;2023-02-21T03:42:41;102181.56;;;10.79;73.07
47716;BME280;33476;50.984;3.538;2023-02-21T03:45:07;102180.69;;;10.79;73.24
47716;BME280;33476;50.984;3.538;2023-02-21T03:47:32;102181.47;;;10.82;73.34
47716;BME280;33476;50.984;3.538;2023-02-21T03:49:58;102177.03;;;10.86;73.19
47716;BME280;33476;50.984;3.538;2023-02-21T03:52:23;102179.59;;;10.87;73.16
47716;BME280;33476;50.984;3.538;2023-02-21T03:54:48;102176.19;;;10.85;73.02
47716;BME280;33476;50.984;3.538;2023-02-21T03:57:14;102174.41;;;10.86;72.95
47716;BME280;33476;50.984;3.538;2023-02-21T03:59:40;102174.41;;;10.86;72.98
47716;BME280;33476;50.984;3.538;2023-02-21T04:02:06;102175.28;;;10.86;72.94
47716;BME280;33476;50.984;3.538;2023-02-21T04:04:31;102169.94;;;10.89;72.92
47716;BME280;33476;50.984;3.538;2023-02-21T04:06:56;102177.72;;;10.92;72.92
47716;BME280;33476;50.984;3.538;2023-02-21T04:09:22;102171.59;;;10.92;72.61
47716;BME280;33476;50.984;3.538;2023-02-21T04:11:47;102172.56;;;10.89;72.70
47716;BME280;33476;50.984;3.538;2023-02-21T04:14:13;102170.94;;;10.85;72.95
47716;BME280;33476;50.984;3.538;2023-02-21T04:16:39;102180.44;;;10.88;73.02
47716;BME280;33476;50.984;3.538;2023-02-21T04:19:04;102174.38;;;10.87;73.05
47716;BME280;33476;50.984;3.538;2023-02-21T04:21:29;102172.66;;;10.86;73.09
47716;BME280;33476;50.984;3.538;2023-02-21T04:23:55;102167.44;;;10.86;73.14
47716;BME280;33476;50.984;3.538;2023-02-21T04:26:21;102165.72;;;10.85;73.19
47716;BME280;33476;50.984;3.538;2023-02-21T04:28:48;102170.91;;;10.87;72.86
47716;BME280;33476;50.984;3.538;2023-02-21T04:31:15;102159.63;;;10.85;73.02
47716;BME280;33476;50.984;3.538;2023-02-21T04:33:40;102161.41;;;10.84;73.19
47716;BME280;33476;50.984;3.538;2023-02-21T04:36:06;102161.50;;;10.80;73.11
47716;BME280;33476;50.984;3.538;2023-02-21T04:38:31;102159.78;;;10.79;73.48
47716;BME280;33476;50.984;3.538;2023-02-21T04:40:57;102155.31;;;10.82;73.34
47716;BME280;33476;50.984;3.538;2023-02-21T04:43:22;102159.66;;;10.83;73.20
47716;BME280;33476;50.984;3.538;2023-02-21T04:45:48;102160.50;;;10.84;73.36
47716;BME280;33476;50.984;3.538;2023-02-21T04:48:13;102153.66;;;10.80;73.19
47716;BME280;33476;50.984;3.538;2023-02-21T04:50:38;102156.38;;;10.77;73.60
47716;BME280;33476;50.984;3.538;2023-02-21T04:53:04;102152.00;;;10.77;73.63
47716;BME280;33476;50.984;3.538;2023-02-21T04:55:29;102153.75;;;10.77;73.24
47716;BME280;33476;50.984;3.538;2023-02-21T04:57:54;102149.34;;;10.79;73.52
47716;BME280;33476;50.984;3.538;2023-02-21T05:00:20;102149.28;;;10.80;73.49
47716;BME280;33476;50.984;3.538;2023-02-21T05:02:45;102155.31;;;10.82;73.09
47716;BME280;33476;50.984;3.538;2023-02-21T05:05:11;102147.50;;;10.82;73.59
47716;BME280;33476;50.984;3.538;2023-02-21T05:07:37;102150.97;;;10.83;73.26
47716;BME280;33476;50.984;3.538;2023-02-21T05:10:03;102147.53;;;10.81;73.25
47716;BME280;33476;50.984;3.538;2023-02-21T05:12:30;102143.31;;;10.75;73.33
47716;BME280;33476;50.984;3.538;2023-02-21T05:14:56;102136.44;;;10.73;73.53
47716;BME280;33476;50.984;3.538;2023-02-21T05:17:21;102136.44;;;10.73;73.71
47716;BME280;33476;50.984;3.538;2023-02-21T05:19:47;102139.91;;;10.73;73.69
47716;BME280;33476;50.984;3.538;2023-02-21T05:22:12;102141.56;;;10.77;73.66
47716;BME280;33476;50.984;3.538;2023-02-21T05:24:40;102145.06;;;10.76;73.47
47716;BME280;33476;50.984;3.538;2023-02-21T05:27:07;102137.19;;;10.78;73.64
47716;BME280;33476;50.984;3.538;2023-02-21T05:29:35;102134.56;;;10.78;73.72
47716;BME280;33476;50.984;3.538;2023-02-21T05:32:01;102139.00;;;10.74;73.76
47716;BME280;33476;50.984;3.538;2023-02-21T05:34:26;102138.94;;;10.76;73.74
47716;BME280;33476;50.984;3.538;2023-02-21T05:36:51;102134.63;;;10.76;74.08
47716;BME280;33476;50.984;3.538;2023-02-21T05:39:17;102134.56;;;10.78;73.71
47716;BME280;33476;50.984;3.538;2023-02-21T05:41:46;102132.88;;;10.75;73.70
47716;BME280;33476;50.984;3.538;2023-02-21T05:44:12;102136.28;;;10.79;73.70
47716;BME280;33476;50.984;3.538;2023-02-21T05:46:37;102138.03;;;10.78;73.67
47716;BME280;33476;50.984;3.538;2023-02-21T05:49:03;102130.25;;;10.77;73.73
47716;BME280;33476;50.984;3.538;2023-02-21T05:51:36;102130.34;;;10.72;73.92
47716;BME280;33476;50.984;3.538;2023-02-21T05:54:03;102124.13;;;10.78;73.74
47716;BME280;33476;50.984;3.538;2023-02-21T05:56:29;102127.63;;;10.77;73.71
47716;BME280;33476;50.984;3.538;2023-02-21T05:58:54;102131.13;;;10.76;73.84
47716;BME280;33476;50.984;3.538;2023-02-21T06:01:20;102125.88;;;10.77;73.67
47716;BME280;33476;50.984;3.538;2023-02-21T06:03:45;102119.78;;;10.77;73.65
47716;BME280;33476;50.984;3.538;2023-02-21T06:06:10;102120.66;;;10.77;73.75
47716;BME280;33476;50.984;3.538;2023-02-21T06:08:46;102122.41;;;10.77;73.78
47716;BME280;33476;50.984;3.538;2023-02-21T06:11:12;102117.88;;;10.82;73.31
47716;BME280;33476;50.984;3.538;2023-02-21T06:13:38;102119.59;;;10.83;73.38
47716;BME280;33476;50.984;3.538;2023-02-21T06:16:03;102124.81;;;10.84;73.24
47716;BME280;33476;50.984;3.538;2023-02-21T06:18:29;102124.00;;;10.81;73.21
47716;BME280;33476;50.984;3.538;2023-02-21T06:20:54;102129.19;;;10.82;73.12
47716;BME280;33476;50.984;3.538;2023-02-21T06:23:19;102127.41;;;10.84;73.27
47716;BME280;33476;50.984;3.538;2023-02-21T06:25:45;102124.75;;;10.86;73.12
47716;BME280;33476;50.984;3.538;2023-02-21T06:28:10;102120.34;;;10.88;73.20
47716;BME280;33476;50.984;3.538;2023-02-21T06:30:35;102119.56;;;10.84;73.19
47716;BME280;33476;50.984;3.538;2023-02-21T06:33:01;102121.25;;;10.87;73.18
47716;BME280;33476;50.984;3.538;2023-02-21T06:35:26;102112.53;;;10.86;72.90
47716;BME280;33476;50.984;3.538;2023-02-21T06:37:51;102115.97;;;10.88;72.54
47716;BME280;33476;50.984;3.538;2023-02-21T06:40:17;102114.19;;;10.89;72.89
47716;BME280;33476;50.984;3.538;2023-02-21T06:42:42;102111.59;;;10.89;72.55
47716;BME280;33476;50.984;3.538;2023-02-21T06:45:08;102106.31;;;10.90;72.56
47716;BME280;33476;50.984;3.538;2023-02-21T06:47:33;102113.44;;;10.85;72.57
47716;BME280;33476;50.984;3.538;2023-02-21T06:49:59;102107.38;;;10.85;72.67
47716;BME280;33476;50.984;3.538;2023-02-21T06:52:24;102113.66;;;10.78;72.77
47716;BME280;33476;50.984;3.538;2023-02-21T06:54:50;102112.00;;;10.74;72.93
47716;BME280;33476;50.984;3.538;2023-02-21T06:57:15;102112.00;;;10.74;72.82
47716;BME280;33476;50.984;3.538;2023-02-21T06:59:41;102108.59;;;10.72;72.96
47716;BME280;33476;50.984;3.538;2023-02-21T07:02:14;102108.66;;;10.70;72.96
47716;BME280;33476;50.984;3.538;2023-02-21T07:04:42;102107.75;;;10.71;72.72
47716;BME280;33476;50.984;3.538;2023-02-21T07:07:07;102105.22;;;10.68;72.93
47716;BME280;33476;50.984;3.538;2023-02-21T07:09:33;102105.19;;;10.69;73.18
47716;BME280;33476;50.984;3.538;2023-02-21T07:11:58;102108.69;;;10.68;73.18
47716;BME280;33476;50.984;3.538;2023-02-21T07:14:23;102105.09;;;10.73;73.05
47716;BME280;33476;50.984;3.538;2023-02-21T07:16:49;102098.03;;;10.75;73.04
47716;BME280;33476;50.984;3.538;2023-02-21T07:19:15;102105.88;;;10.76;72.80
47716;BME280;33476;50.984;3.538;2023-02-21T07:21:42;102105.88;;;10.75;72.74
47716;BME280;33476;50.984;3.538;2023-02-21T07:24:07;102099.75;;;10.76;72.65
47716;BME280;33476;50.984;3.538;2023-02-21T07:26:32;102104.13;;;10.75;72.61
47716;BME280;33476;50.984;3.538;2023-02-21T07:28:58;102099.75;;;10.76;72.67
47716;BME280;33476;50.984;3.538;2023-02-21T07:31:23;102100.59;;;10.78;72.48
47716;BME280;33476;50.984;3.538;2023-02-21T07:33:48;102111.00;;;10.79;72.50
47716;BME280;33476;50.984;3.538;2023-02-21T07:36:14;102111.13;;;10.75;72.53
47716;BME280;33476;50.984;3.538;2023-02-21T07:38:39;102107.66;;;10.74;72.69
47716;BME280;33476;50.984;3.538;2023-02-21T07:41:05;102107.59;;;10.76;72.65
47716;BME280;33476;50.984;3.538;2023-02-21T07:43:31;102105.78;;;10.79;72.33
47716;BME280;33476;50.984;3.538;2023-02-21T07:45:56;102104.88;;;10.80;72.32
47716;BME280;33476;50.984;3.538;2023-02-21T07:48:22;102108.34;;;10.81;72.18
47716;BME280;33476;50.984;3.538;2023-02-21T07:50:47;102111.75;;;10.84;71.84
47716;BME280;33476;50.984;3.538;2023-02-21T07:53:14;102106.50;;;10.84;72.11
47716;BME280;33476;50.984;3.538;2023-02-21T07:55:39;102108.34;;;10.81;72.17
47716;BME280;33476;50.984;3.538;2023-02-21T07:58:05;102110.84;;;10.84;72.01
47716;BME280;33476;50.984;3.538;2023-02-21T08:00:30;102116.06;;;10.85;72.08
47716;BME280;33476;50.984;3.538;2023-02-21T08:02:56;102112.59;;;10.85;71.98
47716;BME280;33476;50.984;3.538;2023-02-21T08:05:21;102116.06;;;10.85;71.96
47716;BME280;33476;50.984;3.538;2023-02-21T08:07:47;102118.56;;;10.88;71.83
47716;BME280;33476;50.984;3.538;2023-02-21T08:10:18;102116.88;;;10.87;71.86
47716;BME280;33476;50.984;3.538;2023-02-21T08:12:44;102121.25;;;10.87;71.85
47716;BME280;33476;50.984;3.538;2023-02-21T08:15:09;102124.81;;;10.84;71.78
47716;BME280;33476;50.984;3.538;2023-02-21T08:17:34;102124.06;;;10.79;71.89
47716;BME280;33476;50.984;3.538;2023-02-21T08:19:59;102123.28;;;10.76;72.02
47716;BME280;33476;50.984;3.538;2023-02-21T08:22:25;102117.19;;;10.77;72.05
47716;BME280;33476;50.984;3.538;2023-02-21T08:24:50;102125.03;;;10.75;71.89
47716;BME280;33476;50.984;3.538;2023-02-21T08:27:16;102117.19;;;10.75;71.91
47716;BME280;33476;50.984;3.538;2023-02-21T08:29:42;102121.56;;;10.76;71.88
47716;BME280;33476;50.984;3.538;2023-02-21T08:32:07;102131.00;;;10.80;71.77
47716;BME280;33476;50.984;3.538;2023-02-21T08:34:33;102125.69;;;10.83;71.61
47716;BME280;33476;50.984;3.538;2023-02-21T08:36:58;102130.03;;;10.83;71.69
47716;BME280;33476;50.984;3.538;2023-02-21T08:39:24;102127.41;;;10.84;71.63
47716;BME280;33476;50.984;3.538;2023-02-21T08:41:49;102122.03;;;10.89;71.37
47716;BME280;33476;50.984;3.538;2023-02-21T08:44:17;102125.56;;;10.88;71.61
47716;BME280;33476;50.984;3.538;2023-02-21T08:46:45;102122.91;;;10.89;71.61
47716;BME280;33476;50.984;3.538;2023-02-21T08:49:11;102115.84;;;10.93;71.53
47716;BME280;33476;50.984;3.538;2023-02-21T08:51:37;102128.00;;;10.94;71.73
47716;BME280;33476;50.984;3.538;2023-02-21T08:54:02;102123.59;;;10.96;71.66
47716;BME280;33476;50.984;3.538;2023-02-21T08:56:28;102128.75;;;10.97;71.63
47716;BME280;33476;50.984;3.538;2023-02-21T08:58:55;102115.69;;;10.97;71.55
47716;BME280;33476;50.984;3.538;2023-02-21T09:01:21;102122.84;;;10.92;71.80
47716;BME280;33476;50.984;3.538;2023-02-21T09:03:47;102117.78;;;10.86;71.93
47716;BME280;33476;50.984;3.538;2023-02-21T09:06:13;102116.13;;;10.82;71.96
47716;BME280;33476;50.984;3.538;2023-02-21T09:08:39;102116.06;;;10.85;71.90
47716;BME280;33476;50.984;3.538;2023-02-21T09:11:06;102114.19;;;10.89;71.87
47716;BME280;33476;50.984;3.538;2023-02-21T09:13:33;102120.22;;;10.92;71.63
47716;BME280;33476;50.984;3.538;2023-02-21T09:16:00;102119.16;;;10.98;71.49
47716;BME280;33476;50.984;3.538;2023-02-21T09:18:26;102114.72;;;11.02;71.50
47716;BME280;33476;50.984;3.538;2023-02-21T09:20:52;102111.25;;;11.01;71.56
47716;BME280;33476;50.984;3.538;2023-02-21T09:23:25;102116.38;;;11.04;71.44
47716;BME280;33476;50.984;3.538;2023-02-21T09:25:50;102111.16;;;11.04;71.17
47716;BME280;33476;50.984;3.538;2023-02-21T09:28:17;102113.81;;;11.03;71.24
47716;BME280;33476;50.984;3.538;2023-02-21T09:30:43;102104.25;;;11.02;71.24
47716;BME280;33476;50.984;3.538;2023-02-21T09:33:08;102103.34;;;11.03;71.20
47716;BME280;33476;50.984;3.538;2023-02-21T09:35:34;102106.78;;;11.05;71.21
47716;BME280;33476;50.984;3.538;2023-02-21T09:38:00;102108.44;;;11.07;71.04
47716;BME280;33476;50.984;3.538;2023-02-21T09:40:36;102100.81;;;11.00;70.77
47716;BME280;33476;50.984;3.538;2023-02-21T09:43:09;102099.84;;;11.04;70.79
47716;BME280;33476;50.984;3.538;2023-02-21T09:45:36;102103.25;;;11.06;70.67
47716;BME280;33476;50.984;3.538;2023-02-21T09:48:06;102098.19;;;11.00;70.83
47716;BME280;33476;50.984;3.538;2023-02-21T09:50:40;102106.91;;;11.00;70.83
47716;BME280;33476;50.984;3.538;2023-02-21T09:53:06;102105.06;;;11.04;70.75
47716;BME280;33476;50.984;3.538;2023-02-21T09:55:37;102113.75;;;11.04;70.54
47716;BME280;33476;50.984;3.538;2023-02-21T09:58:09;102103.25;;;11.06;70.63
47716;BME280;33476;50.984;3.538;2023-02-21T10:00:36;102103.16;;;11.09;70.24
47716;BME280;33476;50.984;3.538;2023-02-21T10:03:06;102102.41;;;11.05;70.29
47716;BME280;33476;50.984;3.538;2023-02-21T10:05:46;102102.50;;;11.02;70.32
47716;BME280;33476;50.984;3.538;2023-02-21T10:08:34;102099.72;;;11.07;70.06
47716;BME280;33476;50.984;3.538;2023-02-21T10:13:42;102090.13;;;11.07;69.77
47716;BME280;33476;50.984;3.538;2023-02-21T10:17:34;102096.31;;;11.05;69.64
47716;BME280;33476;50.984;3.538;2023-02-21T10:19:34;102096.19;;;11.09;69.25
47716;BME280;33476;50.984;3.538;2023-02-21T10:22:02;102093.47;;;11.12;69.30
47716;BME280;33476;50.984;3.538;2023-02-21T10:24:34;102095.13;;;11.15;69.19
47716;BME280;33476;50.984;3.538;2023-02-21T10:27:04;102093.44;;;11.14;69.21
47716;BME280;33476;50.984;3.538;2023-02-21T10:29:38;102087.44;;;11.10;69.39
47716;BME280;33476;50.984;3.538;2023-02-21T10:32:08;102087.25;;;11.16;69.47
47716;BME280;33476;50.984;3.538;2023-02-21T10:34:33;102093.31;;;11.18;69.24
47716;BME280;33476;50.984;3.538;2023-02-21T10:39:50;102086.25;;;11.20;69.31
47716;BME280;33476;50.984;3.538;2023-02-21T10:42:39;102082.00;;;11.18;69.44
47716;BME280;33476;50.984;3.538;2023-02-21T10:45:08;102083.66;;;11.20;69.19
47716;BME280;33476;50.984;3.538;2023-02-21T10:50:10;102079.16;;;11.24;69.35
47716;BME280;33476;50.984;3.538;2023-02-21T10:52:47;102084.44;;;11.22;69.49
47716;BME280;33476;50.984;3.538;2023-02-21T10:55:21;102086.16;;;11.23;69.73
47716;BME280;33476;50.984;3.538;2023-02-21T10:57:56;102077.38;;;11.26;69.49
47716;BME280;33476;50.984;3.538;2023-02-21T11:00:29;102074.78;;;11.26;69.48
47716;BME280;33476;50.984;3.538;2023-02-21T11:03:03;102075.56;;;11.28;69.33
47716;BME280;33476;50.984;3.538;2023-02-21T11:05:30;102076.38;;;11.30;69.52
47716;BME280;33476;50.984;3.538;2023-02-21T11:08:02;102071.88;;;11.35;69.26
47716;BME280;33476;50.984;3.538;2023-02-21T11:10:41;102082.22;;;11.38;69.24
47716;BME280;33476;50.984;3.538;2023-02-21T11:13:14;102073.47;;;11.39;69.42
47716;BME280;33476;50.984;3.538;2023-02-21T11:15:40;102067.19;;;11.45;69.19
47716;BME280;33476;50.984;3.538;2023-02-21T11:20:44;102067.00;;;11.51;69.04
47716;BME280;33476;50.984;3.538;2023-02-21T11:25:46;102059.84;;;11.56;68.83
47716;BME280;33476;50.984;3.538;2023-02-21T11:31:04;102056.56;;;11.49;68.94
47716;BME280;33476;50.984;3.538;2023-02-21T11:33:31;102053.94;;;11.49;68.85
47716;BME280;33476;50.984;3.538;2023-02-21T11:36:15;102054.13;;;11.45;68.88
47716;BME280;33476;50.984;3.538;2023-02-21T11:38:58;102052.28;;;11.47;68.75
47716;BME280;33476;50.984;3.538;2023-02-21T11:41:34;102054.00;;;11.48;68.71
47716;BME280;33476;50.984;3.538;2023-02-21T11:44:00;102054.81;;;11.50;68.68
47716;BME280;33476;50.984;3.538;2023-02-21T11:46:48;102053.25;;;11.44;68.78
47716;BME280;33476;50.984;3.538;2023-02-21T11:49:24;102045.34;;;11.46;68.63
47716;BME280;33476;50.984;3.538;2023-02-21T11:52:02;102040.22;;;11.43;68.85
47716;BME280;33476;50.984;3.538;2023-02-21T11:54:30;102033.25;;;11.43;68.56
47716;BME280;33476;50.984;3.538;2023-02-21T12:14:36;102007.19;;;11.67;68.04
47716;BME280;33476;50.984;3.538;2023-02-21T12:19:36;101999.34;;;11.67;67.66
47716;BME280;33476;50.984;3.538;2023-02-21T12:30:24;101992.03;;;11.75;67.40
47716;BME280;33476;50.984;3.538;2023-02-21T12:46:27;101973.44;;;11.58;67.54
47716;BME280;33476;50.984;3.538;2023-02-21T12:49:15;101973.44;;;11.58;67.45
47716;BME280;33476;50.984;3.538;2023-02-21T12:51:53;101961.22;;;11.58;67.81
47716;BME280;33476;50.984;3.538;2023-02-21T12:54:39;101956.88;;;11.59;67.66
47716;BME280;33476;50.984;3.538;2023-02-21T12:57:12;101957.66;;;11.61;67.60
47716;BME280;33476;50.984;3.538;2023-02-21T13:02:26;101955.56;;;11.70;67.05
47716;BME280;33476;50.984;3.538;2023-02-21T13:04:59;101951.78;;;11.79;66.82
47716;BME280;33476;50.984;3.538;2023-02-21T13:07:46;101951.75;;;11.80;66.93
47716;BME280;33476;50.984;3.538;2023-02-21T13:10:18;101940.09;;;11.89;66.40
47716;BME280;33476;50.984;3.538;2023-02-21T13:13:11;101939.44;;;11.84;66.93
47716;BME280;33476;50.984;3.538;2023-02-21T13:15:39;101934.03;;;11.89;66.53
47716;BME280;33476;50.984;3.538;2023-02-21T13:18:09;101935.66;;;11.91;66.70
47716;BME280;33476;50.984;3.538;2023-02-21T13:20:45;101927.81;;;11.91;66.73
47716;BME280;33476;50.984;3.538;2023-02-21T13:23:30;101921.63;;;11.94;66.91
47716;BME280;33476;50.984;3.538;2023-02-21T13:26:20;101922.38;;;11.97;66.63
47716;BME280;33476;50.984;3.538;2023-02-21T13:28:54;101917.06;;;11.99;66.56
47716;BME280;33476;50.984;3.538;2023-02-21T13:31:23;101914.50;;;11.97;66.45
47716;BME280;33476;50.984;3.538;2023-02-21T13:33:51;101920.66;;;11.96;66.69
47716;BME280;33476;50.984;3.538;2023-02-21T13:36:28;101918.81;;;12.00;66.57
47716;BME280;33476;50.984;3.538;2023-02-21T13:39:18;101915.94;;;12.06;66.59
47716;BME280;33476;50.984;3.538;2023-02-21T13:41:49;101911.72;;;12.02;66.57
47716;BME280;33476;50.984;3.538;2023-02-21T13:44:22;101910.19;;;11.96;66.33
47716;BME280;33476;50.984;3.538;2023-02-21T13:49:54;101914.06;;;11.86;66.72
47716;BME280;33476;50.984;3.538;2023-02-21T13:57:34;101901.69;;;11.90;66.75
47716;BME280;33476;50.984;3.538;2023-02-21T14:02:55;101895.66;;;11.88;66.77
47716;BME280;33476;50.984;3.538;2023-02-21T14:05:21;101888.97;;;11.79;66.90
47716;BME280;33476;50.984;3.538;2023-02-21T14:08:07;101889.41;;;11.67;67.61
47716;BME280;33476;50.984;3.538;2023-02-21T14:10:39;101889.25;;;11.71;67.26
47716;BME280;33476;50.984;3.538;2023-02-21T14:13:16;101885.91;;;11.66;67.30
47716;BME280;33476;50.984;3.538;2023-02-21T14:15:45;101881.59;;;11.65;67.51
47716;BME280;33476;50.984;3.538;2023-02-21T14:18:28;101884.28;;;11.64;67.70
47716;BME280;33476;50.984;3.538;2023-02-21T14:20:55;101877.97;;;11.69;67.37
47716;BME280;33476;50.984;3.538;2023-02-21T14:23:30;101880.53;;;11.71;67.09
47716;BME280;33476;50.984;3.538;2023-02-21T14:26:01;101873.72;;;11.67;67.53
47716;BME280;33476;50.984;3.538;2023-02-21T14:31:11;101863.63;;;11.81;66.68
47716;BME280;33476;50.984;3.538;2023-02-21T14:33:37;101865.53;;;11.76;66.71
47716;BME280;33476;50.984;3.538;2023-02-21T14:36:05;101863.78;;;11.75;66.93
47716;BME280;33476;50.984;3.538;2023-02-21T14:38:38;101860.38;;;11.73;67.12
47716;BME280;33476;50.984;3.538;2023-02-21T14:41:22;101851.75;;;11.71;66.95
47716;BME280;33476;50.984;3.538;2023-02-21T14:44:08;101854.69;;;11.62;67.17
47716;BME280;33476;50.984;3.538;2023-02-21T14:49:55;101860.41;;;11.48;67.69
47716;BME280;33476;50.984;3.538;2023-02-21T14:52:38;101857.72;;;11.49;67.43
47716;BME280;33476;50.984;3.538;2023-02-21T15:03:53;101846.16;;;11.57;67.63
47716;BME280;33476;50.984;3.538;2023-02-21T15:06:25;101844.38;;;11.57;67.55
47716;BME280;33476;50.984;3.538;2023-02-21T15:08:51;101852.22;;;11.57;67.66
47716;BME280;33476;50.984;3.538;2023-02-21T15:11:37;101847.00;;;11.57;67.71
47716;BME280;33476;50.984;3.538;2023-02-21T15:16:43;101833.81;;;11.60;67.41
47716;BME280;33476;50.984;3.538;2023-02-21T15:19:23;101837.38;;;11.58;67.52
47716;BME280;33476;50.984;3.538;2023-02-21T15:27:37;101837.56;;;11.53;67.50